Time,TemperatureF,DewpointF,PressureIn,WindDirection,WindDirectionDegrees,WindSpeedMPH,WindSpeedGustMPH,Humidity,HourlyPrecipIn,Conditions,Clouds,dailyrainin,SoftwareType,DateUTC
2013-02-15 00:13:00,36.5,32.0,30.06,East,86,2.0,2.0,85,0.00,,,0.00,weatherlink.com 1.10,2013-02-15 05:13:00,
2013-02-15 00:28:00,36.3,32.0,30.07,East,86,1.0,2.0,84,0.00,,,0.00,weatherlink.com 1.10,2013-02-15 05:28:00,
2013-02-15 00:43:00,35.9,32.0,30.08,East,86,1.0,3.0,86,0.00,,,0.00,weatherlink.com 1.10,2013-02-15 05:43:00,
2013-02-15 00:58:00,36.1,32.0,30.08,East,86,0.0,2.0,84,0.00,,,0.00,weatherlink.com 1.10,2013-02-15 05:58:00,
2013-02-15 01:13:00,36.2,32.0,30.08,East,86,1.0,2.0,84,0.00,,,0.00,weatherlink.com 1.10,2013-02-15 06:13:00,
2013-02-15 01:28:00,35.2,31.0,30.08,East,86,0.0,2.0,85,0.00,,,0.00,weatherlink.com 1.10,2013-02-15 06:28:00,
2013-02-15 01:43:00,34.9,31.0,30.08,East,86,0.0,1.0,85,0.00,,,0.00,weatherlink.com 1.10,2013-02-15 06:43:00,
2013-02-15 01:58:00,34.3,31.0,30.07,East,86,0.0,1.0,89,0.00,,,0.00,weatherlink.com 1.10,2013-02-15 06:58:00,
2013-02-15 02:13:00,34.2,31.0,30.07,East,86,2.0,3.0,88,0.00,,,0.00,weatherlink.com 1.10,2013-02-15 07:13:00,
2013-02-15 02:28:00,34.6,31.0,30.07,East,86,0.0,1.0,88,0.00,,,0.00,weatherlink.com 1.10,2013-02-15 07:28:00,
2013-02-15 02:43:00,34.6,31.0,30.07,East,86,0.0,1.0,88,0.00,,,0.00,weatherlink.com 1.10,2013-02-15 07:43:00,
2013-02-15 02:58:00,34.1,31.0,30.06,East,86,1.0,1.0,87,0.00,,,0.00,weatherlink.com 1.10,2013-02-15 07:58:00,
2013-02-15 03:13:00,32.9,30.0,30.06,East,86,0.0,1.0,88,0.00,,,0.00,weatherlink.com 1.10,2013-02-15 08:13:00,
2013-02-15 03:28:00,32.2,30.0,30.06,East,86,0.0,2.0,90,0.00,,,0.00,weatherlink.com 1.10,2013-02-15 08:28:00,
2013-02-15 03:43:00,31.6,29.0,30.07,East,86,0.0,0.0,90,0.00,,,0.00,weatherlink.com 1.10,2013-02-15 08:43:00,
2013-02-15 03:58:00,31.0,29.0,30.07,East,86,0.0,2.0,92,0.00,,,0.00,weatherlink.com 1.10,2013-02-15 08:58:00,
2013-02-15 04:13:00,32.2,31.0,30.07,East,86,0.0,3.0,94,0.00,,,0.00,weatherlink.com 1.10,2013-02-15 09:13:00,
2013-02-15 04:28:00,31.4,29.0,30.07,East,86,1.0,3.0,91,0.00,,,0.00,weatherlink.com 1.10,2013-02-15 09:28:00,
2013-02-15 04:43:00,32.6,31.0,30.07,East,86,0.0,2.0,93,0.00,,,0.00,weatherlink.com 1.10,2013-02-15 09:43:00,
2013-02-15 04:58:00,31.7,29.0,30.07,East,86,0.0,0.0,90,0.00,,,0.00,weatherlink.com 1.10,2013-02-15 09:58:00,
2013-02-15 05:13:00,32.8,31.0,30.07,East,86,0.0,0.0,92,0.00,,,0.00,weatherlink.com 1.10,2013-02-15 10:13:00,
2013-02-15 05:28:00,32.8,30.0,30.08,East,86,0.0,2.0,90,0.00,,,0.00,weatherlink.com 1.10,2013-02-15 10:28:00,
2013-02-15 05:43:00,32.3,30.0,30.08,East,86,0.0,1.0,92,0.00,,,0.00,weatherlink.com 1.10,2013-02-15 10:43:00,
2013-02-15 05:58:00,32.8,31.0,30.07,East,86,0.0,2.0,92,0.00,,,0.00,weatherlink.com 1.10,2013-02-15 10:58:00,
2013-02-15 06:13:00,32.8,31.0,30.08,East,86,0.0,2.0,92,0.00,,,0.00,weatherlink.com 1.10,2013-02-15 11:13:00,
2013-02-15 06:28:00,31.9,29.0,30.08,East,86,0.0,1.0,90,0.00,,,0.00,weatherlink.com 1.10,2013-02-15 11:28:00,
2013-02-15 06:44:00,31.6,29.0,30.09,East,86,0.0,1.0,91,0.00,,,0.00,weatherlink.com 1.10,2013-02-15 11:44:00,
2013-02-15 06:59:00,30.8,29.0,30.09,East,86,0.0,1.0,91,0.00,,,0.00,weatherlink.com 1.10,2013-02-15 11:59:00,
2013-02-15 07:14:00,30.3,29.0,30.09,East,86,0.0,1.0,94,0.00,,,0.00,weatherlink.com 1.10,2013-02-15 12:14:00,
2013-02-15 07:29:00,29.9,27.0,30.10,East,86,0.0,0.0,90,0.00,,,0.00,weatherlink.com 1.10,2013-02-15 12:29:00,
2013-02-15 07:44:00,29.6,28.0,30.10,East,86,0.0,0.0,94,0.00,,,0.00,weatherlink.com 1.10,2013-02-15 12:44:00,
2013-02-15 07:59:00,30.9,30.0,30.11,East,86,0.0,0.0,95,0.00,,,0.00,weatherlink.com 1.10,2013-02-15 12:59:00,
2013-02-15 08:14:00,33.0,31.0,30.11,East,85,0.0,1.0,93,0.00,,,0.00,weatherlink.com 1.10,2013-02-15 13:14:00,
2013-02-15 08:29:00,34.9,33.0,30.10,East,83,0.0,0.0,91,0.00,,,0.00,weatherlink.com 1.10,2013-02-15 13:29:00,
2013-02-15 08:44:00,37.4,34.0,30.10,East,83,0.0,1.0,86,0.00,,,0.00,weatherlink.com 1.10,2013-02-15 13:44:00,
2013-02-15 08:59:00,39.8,36.0,30.10,East,83,0.0,0.0,85,0.00,,,0.00,weatherlink.com 1.10,2013-02-15 13:59:00,
2013-02-15 09:14:00,40.0,36.0,30.10,East,83,0.0,1.0,85,0.00,,,0.00,weatherlink.com 1.10,2013-02-15 14:14:00,
2013-02-15 09:29:00,41.3,37.0,30.09,East,83,0.0,1.0,83,0.00,,,0.00,weatherlink.com 1.10,2013-02-15 14:29:00,
2013-02-15 09:44:00,43.1,38.0,30.10,East,83,0.0,1.0,81,0.00,,,0.00,weatherlink.com 1.10,2013-02-15 14:44:00,
2013-02-15 09:59:00,45.0,37.0,30.09,East,83,0.0,1.0,73,0.00,,,0.00,weatherlink.com 1.10,2013-02-15 14:59:00,
2013-02-15 10:14:00,47.0,37.0,30.09,East,83,0.0,2.0,69,0.00,,,0.00,weatherlink.com 1.10,2013-02-15 15:14:00,
2013-02-15 10:30:00,49.0,36.0,30.08,SSW,194,2.0,4.0,61,0.00,,,0.00,weatherlink.com 1.10,2013-02-15 15:30:00,
2013-02-15 10:44:00,50.6,37.0,30.08,South,177,3.0,5.0,59,0.00,,,0.00,weatherlink.com 1.10,2013-02-15 15:44:00,
2013-02-15 10:59:00,52.1,35.0,30.08,SSW,198,6.0,7.0,53,0.00,,,0.00,weatherlink.com 1.10,2013-02-15 15:59:00,
2013-02-15 11:14:00,52.7,34.0,30.07,SW,226,5.0,8.0,50,0.00,,,0.00,weatherlink.com 1.10,2013-02-15 16:14:00,
2013-02-15 11:30:00,54.3,35.0,30.07,South,177,5.0,9.0,48,0.00,,,0.00,weatherlink.com 1.10,2013-02-15 16:30:00,
2013-02-15 11:45:00,56.0,33.0,30.06,SW,234,7.0,10.0,42,0.00,,,0.00,weatherlink.com 1.10,2013-02-15 16:45:00,
2013-02-15 12:00:00,56.4,32.0,30.05,WSW,238,8.0,10.0,40,0.00,,,0.00,weatherlink.com 1.10,2013-02-15 17:00:00,
2013-02-15 12:15:00,56.8,33.0,30.04,South,177,6.0,11.0,40,0.00,,,0.00,weatherlink.com 1.10,2013-02-15 17:15:00,
2013-02-15 12:30:00,57.4,32.0,30.03,South,177,9.0,11.0,38,0.00,,,0.00,weatherlink.com 1.10,2013-02-15 17:30:00,
2013-02-15 12:45:00,57.8,33.0,30.02,SW,224,3.0,12.0,39,0.00,,,0.00,weatherlink.com 1.10,2013-02-15 17:45:00,
2013-02-15 13:00:00,58.4,33.0,30.02,South,183,5.0,12.0,39,0.00,,,0.00,weatherlink.com 1.10,2013-02-15 18:00:00,
2013-02-15 13:15:00,58.6,33.0,30.00,South,177,3.0,11.0,38,0.00,,,0.00,weatherlink.com 1.10,2013-02-15 18:15:00,
2013-02-15 13:30:00,59.5,32.0,29.99,SSW,196,8.0,14.0,35,0.00,,,0.00,weatherlink.com 1.10,2013-02-15 18:30:00,
2013-02-15 13:45:00,59.7,33.0,29.98,SSW,194,8.0,12.0,37,0.00,,,0.00,weatherlink.com 1.10,2013-02-15 18:45:00,
2013-02-15 14:00:00,59.5,33.0,29.98,South,189,7.0,14.0,37,0.00,,,0.00,weatherlink.com 1.10,2013-02-15 19:00:00,
2013-02-15 14:15:00,59.8,33.0,29.97,South,188,7.0,14.0,37,0.00,,,0.00,weatherlink.com 1.10,2013-02-15 19:15:00,
2013-02-15 14:30:00,58.8,32.0,29.96,SSW,204,5.0,13.0,36,0.00,,,0.00,weatherlink.com 1.10,2013-02-15 19:30:00,
2013-02-15 14:45:00,59.4,34.0,29.95,WSW,254,7.0,12.0,38,0.00,,,0.00,weatherlink.com 1.10,2013-02-15 19:45:00,
2013-02-15 15:00:00,59.2,33.0,29.94,South,175,11.0,12.0,38,0.00,,,0.00,weatherlink.com 1.10,2013-02-15 20:00:00,
2013-02-15 15:15:00,60.0,33.0,29.93,South,177,6.0,16.0,36,0.00,,,0.00,weatherlink.com 1.10,2013-02-15 20:15:00,
2013-02-15 15:29:00,58.5,33.0,29.93,SSW,206,4.0,11.0,38,0.00,,,0.00,weatherlink.com 1.10,2013-02-15 20:29:00,
2013-02-15 15:45:00,58.0,34.0,29.93,South,186,7.0,10.0,40,0.00,,,0.00,weatherlink.com 1.10,2013-02-15 20:45:00,
2013-02-15 16:00:00,58.5,33.0,29.93,SW,220,2.0,7.0,39,0.00,,,0.00,weatherlink.com 1.10,2013-02-15 21:00:00,
2013-02-15 16:15:00,58.5,34.0,29.92,SW,226,2.0,8.0,40,0.00,,,0.00,weatherlink.com 1.10,2013-02-15 21:15:00,
2013-02-15 16:30:00,57.7,33.0,29.93,SSW,197,7.0,11.0,40,0.00,,,0.00,weatherlink.com 1.10,2013-02-15 21:30:00,
2013-02-15 16:45:00,57.4,34.0,29.93,SSW,213,6.0,9.0,41,0.00,,,0.00,weatherlink.com 1.10,2013-02-15 21:45:00,
2013-02-15 17:00:00,57.1,35.0,29.92,SW,217,2.0,5.0,43,0.00,,,0.00,weatherlink.com 1.10,2013-02-15 22:00:00,
2013-02-15 17:15:00,56.9,34.0,29.92,SSW,211,2.0,5.0,42,0.00,,,0.00,weatherlink.com 1.10,2013-02-15 22:15:00,
2013-02-15 17:30:00,57.1,33.0,29.92,WSW,253,4.0,9.0,41,0.00,,,0.00,weatherlink.com 1.10,2013-02-15 22:30:00,
2013-02-15 17:45:00,56.9,34.0,29.92,SW,216,3.0,7.0,42,0.00,,,0.00,weatherlink.com 1.10,2013-02-15 22:45:00,
2013-02-15 18:00:00,56.6,34.0,29.93,NW,314,2.0,5.0,43,0.00,,,0.00,weatherlink.com 1.10,2013-02-15 23:00:00,
2013-02-15 18:15:00,55.9,35.0,29.93,NW,314,2.0,8.0,45,0.00,,,0.00,weatherlink.com 1.10,2013-02-15 23:15:00,
2013-02-15 18:30:00,55.3,35.0,29.94,WNW,301,5.0,9.0,47,0.00,,,0.00,weatherlink.com 1.10,2013-02-15 23:30:00,
2013-02-15 18:45:00,54.7,35.0,29.95,WNW,294,5.0,9.0,48,0.00,,,0.00,weatherlink.com 1.10,2013-02-15 23:45:00,
2013-02-15 19:00:00,54.3,36.0,29.95,WNW,287,6.0,10.0,50,0.00,,,0.00,weatherlink.com 1.10,2013-02-16 00:00:00,
2013-02-15 19:15:00,53.3,37.0,29.96,NW,308,5.0,16.0,54,0.00,,,0.00,weatherlink.com 1.10,2013-02-16 00:15:00,
2013-02-15 19:30:00,52.3,37.0,29.96,WNW,292,7.0,14.0,57,0.00,,,0.00,weatherlink.com 1.10,2013-02-16 00:30:00,
2013-02-15 19:45:00,51.7,38.0,29.97,WNW,302,8.0,11.0,59,0.00,,,0.00,weatherlink.com 1.10,2013-02-16 00:45:00,
2013-02-15 20:00:00,51.0,37.0,29.97,NNW,339,3.0,6.0,60,0.00,,,0.00,weatherlink.com 1.10,2013-02-16 01:00:00,
2013-02-15 20:15:00,50.3,37.0,29.98,NW,304,6.0,12.0,61,0.00,,,0.00,weatherlink.com 1.10,2013-02-16 01:15:00,
2013-02-15 20:30:00,49.8,37.0,29.97,WNW,283,3.0,7.0,62,0.00,,,0.00,weatherlink.com 1.10,2013-02-16 01:30:00,
2013-02-15 20:45:00,49.2,38.0,29.98,North,354,2.0,4.0,65,0.00,,,0.00,weatherlink.com 1.10,2013-02-16 01:45:00,
2013-02-15 21:00:00,48.3,38.0,29.98,East,95,1.0,5.0,67,0.00,,,0.00,weatherlink.com 1.10,2013-02-16 02:00:00,
2013-02-15 21:15:00,47.8,38.0,29.98,NNE,33,1.0,6.0,68,0.00,,,0.00,weatherlink.com 1.10,2013-02-16 02:15:00,
2013-02-15 21:30:00,47.3,37.0,29.99,NNE,33,0.0,1.0,67,0.00,,,0.00,weatherlink.com 1.10,2013-02-16 02:30:00,
2013-02-15 21:45:00,46.7,36.0,29.99,East,89,0.0,3.0,66,0.00,,,0.00,weatherlink.com 1.10,2013-02-16 02:45:00,
2013-02-15 22:00:00,45.8,35.0,30.00,ESE,116,0.0,3.0,67,0.00,,,0.00,weatherlink.com 1.10,2013-02-16 03:00:00,
2013-02-15 22:15:00,45.1,35.0,30.00,ENE,64,1.0,3.0,67,0.00,,,0.00,weatherlink.com 1.10,2013-02-16 03:15:00,
2013-02-15 22:30:00,44.5,34.0,30.00,NE,51,3.0,5.0,68,0.00,,,0.00,weatherlink.com 1.10,2013-02-16 03:30:00,
2013-02-15 22:45:00,44.2,34.0,29.99,ENE,77,1.0,4.0,68,0.00,,,0.00,weatherlink.com 1.10,2013-02-16 03:45:00,
2013-02-15 23:00:00,43.7,34.0,29.99,East,85,0.0,3.0,68,0.00,,,0.00,weatherlink.com 1.10,2013-02-16 04:00:00,
2013-02-15 23:15:00,42.9,33.0,29.99,East,85,0.0,1.0,69,0.00,,,0.00,weatherlink.com 1.10,2013-02-16 04:15:00,
2013-02-15 23:30:00,42.6,33.0,29.99,ENE,70,1.0,2.0,68,0.00,,,0.00,weatherlink.com 1.10,2013-02-16 04:30:00,
2013-02-15 23:46:00,42.4,32.0,29.99,ENE,74,0.0,2.0,68,0.00,,,0.00,weatherlink.com 1.10,2013-02-16 04:46:00,